sensor_id;sensor_type;location;lat;lon;timestamp;pressure;altitude;pressure_sealevel;temperature;humidity
72423;BME280;60413;55.658;37.498;2023-03-20T00:00:09;99210.81;;;-1.80;100.00
72423;BME280;60413;55.658;37.498;2023-03-20T00:17:22;99258.84;;;-1.61;100.00
72423;BME280;60413;55.658;37.498;2023-03-20T00:23:10;99255.88;;;-1.74;100.00
72423;BME280;60413;55.658;37.498;2023-03-20T00:25:45;99251.38;;;-1.64;100.00
72423;BME280;60413;55.658;37.498;2023-03-20T00:28:45;99174.66;;;-2.14;100.00
72423;BME280;60413;55.658;37.498;2023-03-20T00:31:33;99184.69;;;-2.11;100.00
72423;BME280;60413;55.658;37.498;2023-03-20T00:34:12;99214.31;;;-1.89;100.00
72423;BME280;60413;55.658;37.498;2023-03-20T00:36:45;99176.06;;;-2.28;100.00
72423;BME280;60413;55.658;37.498;2023-03-20T00:39:57;99182.31;;;-2.31;100.00
72423;BME280;60413;55.658;37.498;2023-03-20T00:43:04;99173.81;;;-2.23;100.00
72423;BME280;60413;55.658;37.498;2023-03-20T00:54:39;99247.97;;;-1.73;100.00
72423;BME280;60413;55.658;37.498;2023-03-20T00:57:13;99243.78;;;-1.74;100.00
72423;BME280;60413;55.658;37.498;2023-03-20T01:00:07;99249.28;;;-1.69;100.00
72423;BME280;60413;55.658;37.498;2023-03-20T01:02:52;99173.34;;;-2.18;100.00
72423;BME280;60413;55.658;37.498;2023-03-20T01:05:26;99216.22;;;-1.99;100.00
72423;BME280;60413;55.658;37.498;2023-03-20T01:08:09;99205.38;;;-2.03;100.00
72423;BME280;60413;55.658;37.498;2023-03-20T01:10:37;99171.09;;;-2.21;100.00
72423;BME280;60413;55.658;37.498;2023-03-20T01:13:22;99206.63;;;-2.15;100.00
72423;BME280;60413;55.658;37.498;2023-03-20T01:16:24;99185.53;;;-2.37;100.00
72423;BME280;60413;55.658;37.498;2023-03-20T01:18:56;99176.75;;;-2.44;100.00
72423;BME280;60413;55.658;37.498;2023-03-20T01:21:34;99164.53;;;-2.42;100.00
72423;BME280;60413;55.658;37.498;2023-03-20T01:24:26;99161.75;;;-2.49;100.00
72423;BME280;60413;55.658;37.498;2023-03-20T01:26:57;99253.56;;;-1.86;100.00
72423;BME280;60413;55.658;37.498;2023-03-20T01:29:31;99184.78;;;-2.21;100.00
72423;BME280;60413;55.658;37.498;2023-03-20T01:32:24;99172.63;;;-2.37;100.00
72423;BME280;60413;55.658;37.498;2023-03-20T01:34:56;99229.72;;;-2.06;100.00
72423;BME280;60413;55.658;37.498;2023-03-20T01:37:32;99175.75;;;-2.51;100.00
72423;BME280;60413;55.658;37.498;2023-03-20T01:43:24;99171.00;;;-2.64;100.00
72423;BME280;60413;55.658;37.498;2023-03-20T01:46:25;99237.59;;;-2.15;100.00
72423;BME280;60413;55.658;37.498;2023-03-20T01:52:36;99211.91;;;-2.25;100.00
72423;BME280;60413;55.658;37.498;2023-03-20T01:55:55;99223.25;;;-1.75;100.00
72423;BME280;60413;55.658;37.498;2023-03-20T02:02:19;99240.66;;;-1.35;100.00
72423;BME280;60413;55.658;37.498;2023-03-20T02:05:29;99228.50;;;-1.42;100.00
72423;BME280;60413;55.658;37.498;2023-03-20T02:08:26;99257.16;;;-1.27;100.00
72423;BME280;60413;55.658;37.498;2023-03-20T02:11:28;99174.41;;;-1.95;100.00
72423;BME280;60413;55.658;37.498;2023-03-20T02:13:59;99198.88;;;-1.73;100.00
72423;BME280;60413;55.658;37.498;2023-03-20T02:16:47;99255.16;;;-1.50;100.00
72423;BME280;60413;55.658;37.498;2023-03-20T02:22:57;99237.97;;;-1.68;100.00
72423;BME280;60413;55.658;37.498;2023-03-20T02:39:46;99171.09;;;-2.21;100.00
72423;BME280;60413;55.658;37.498;2023-03-20T02:42:55;99211.88;;;-1.91;100.00
72423;BME280;60413;55.658;37.498;2023-03-20T02:59:57;99151.34;;;-2.31;100.00
72423;BME280;60413;55.658;37.498;2023-03-20T03:05:54;99181.00;;;-2.09;100.00
72423;BME280;60413;55.658;37.498;2023-03-20T03:08:27;99157.53;;;-2.24;100.00
72423;BME280;60413;55.658;37.498;2023-03-20T03:11:08;99148.91;;;-2.32;100.00
72423;BME280;60413;55.658;37.498;2023-03-20T03:13:45;99158.09;;;-2.38;100.00
72423;BME280;60413;55.658;37.498;2023-03-20T03:16:21;99180.09;;;-2.26;100.00
72423;BME280;60413;55.658;37.498;2023-03-20T03:21:55;99135.06;;;-2.31;100.00
72423;BME280;60413;55.658;37.498;2023-03-20T03:24:35;99158.50;;;-2.16;100.00
72423;BME280;60413;55.658;37.498;2023-03-20T03:30:46;99213.91;;;-1.68;100.00
72423;BME280;60413;55.658;37.498;2023-03-20T03:33:52;99142.22;;;-2.17;100.00
72423;BME280;60413;55.658;37.498;2023-03-20T03:36:37;99173.78;;;-1.97;100.00
72423;BME280;60413;55.658;37.498;2023-03-20T03:43:19;99207.03;;;-1.43;100.00
72423;BME280;60413;55.658;37.498;2023-03-20T03:46:16;99150.75;;;-1.82;100.00
72423;BME280;60413;55.658;37.498;2023-03-20T03:49:06;99173.44;;;-1.43;100.00
72423;BME280;60413;55.658;37.498;2023-03-20T03:58:28;99207.56;;;1.54;100.00
72423;BME280;60413;55.658;37.498;2023-03-20T04:01:08;99199.00;;;2.71;100.00
72423;BME280;60413;55.658;37.498;2023-03-20T04:03:55;99194.94;;;3.62;100.00
72423;BME280;60413;55.658;37.498;2023-03-20T04:07:09;99266.34;;;4.37;100.00
72423;BME280;60413;55.658;37.498;2023-03-20T04:09:35;99272.16;;;4.26;100.00
72423;BME280;60413;55.658;37.498;2023-03-20T04:12:02;99207.16;;;3.89;100.00
72423;BME280;60413;55.658;37.498;2023-03-20T04:14:29;99208.59;;;3.64;100.00
72423;BME280;60413;55.658;37.498;2023-03-20T04:20:15;99266.09;;;3.90;100.00
72423;BME280;60413;55.658;37.498;2023-03-20T04:22:56;99253.56;;;4.07;100.00
72423;BME280;60413;55.658;37.498;2023-03-20T04:25:26;99199.44;;;4.10;100.00
72423;BME280;60413;55.658;37.498;2023-03-20T04:33:47;99211.53;;;5.12;100.00
72423;BME280;60413;55.658;37.498;2023-03-20T04:37:26;99272.81;;;6.23;100.00
72423;BME280;60413;55.658;37.498;2023-03-20T04:40:15;99223.75;;;5.85;100.00
72423;BME280;60413;55.658;37.498;2023-03-20T04:46:20;99280.91;;;8.06;100.00
72423;BME280;60413;55.658;37.498;2023-03-20T05:02:20;99262.59;;;10.57;100.00
72423;BME280;60413;55.658;37.498;2023-03-20T05:07:42;99291.50;;;11.27;100.00
72423;BME280;60413;55.658;37.498;2023-03-20T05:10:20;99292.66;;;11.65;100.00
72423;BME280;60413;55.658;37.498;2023-03-20T05:12:53;99302.81;;;11.56;100.00
72423;BME280;60413;55.658;37.498;2023-03-20T05:28:32;99281.31;;;6.64;100.00
72423;BME280;60413;55.658;37.498;2023-03-20T05:32:14;99282.69;;;5.88;100.00
72423;BME280;60413;55.658;37.498;2023-03-20T05:34:59;99218.56;;;5.05;100.00
72423;BME280;60413;55.658;37.498;2023-03-20T05:37:54;99280.47;;;5.11;100.00
72423;BME280;60413;55.658;37.498;2023-03-20T05:40:33;99247.63;;;4.69;100.00
72423;BME280;60413;55.658;37.498;2023-03-20T05:43:39;99280.56;;;4.70;100.00
72423;BME280;60413;55.658;37.498;2023-03-20T05:46:39;99283.81;;;4.78;100.00
72423;BME280;60413;55.658;37.498;2023-03-20T05:50:17;99270.53;;;4.80;100.00
72423;BME280;60413;55.658;37.498;2023-03-20T05:53:19;99272.84;;;5.16;100.00
72423;BME280;60413;55.658;37.498;2023-03-20T05:57:00;99255.38;;;5.57;100.00
72423;BME280;60413;55.658;37.498;2023-03-20T06:00:14;99218.06;;;6.15;100.00
72423;BME280;60413;55.658;37.498;2023-03-20T06:03:30;99263.78;;;6.64;100.00
72423;BME280;60413;55.658;37.498;2023-03-20T06:06:31;99294.28;;;6.39;100.00
72423;BME280;60413;55.658;37.498;2023-03-20T06:09:11;99266.22;;;5.54;100.00
72423;BME280;60413;55.658;37.498;2023-03-20T06:12:00;99214.13;;;5.06;100.00
72423;BME280;60413;55.658;37.498;2023-03-20T06:14:34;99245.28;;;5.07;100.00
72423;BME280;60413;55.658;37.498;2023-03-20T06:35:46;99217.88;;;4.56;100.00
72423;BME280;60413;55.658;37.498;2023-03-20T06:43:36;99205.00;;;6.15;100.00
72423;BME280;60413;55.658;37.498;2023-03-20T06:46:05;99183.72;;;6.43;100.00
72423;BME280;60413;55.658;37.498;2023-03-20T06:48:50;99197.47;;;6.71;100.00
72423;BME280;60413;55.658;37.498;2023-03-20T06:51:45;99207.84;;;7.16;100.00
72423;BME280;60413;55.658;37.498;2023-03-20T07:04:00;99273.09;;;8.18;100.00
72423;BME280;60413;55.658;37.498;2023-03-20T07:09:48;99200.91;;;7.72;100.00
72423;BME280;60413;55.658;37.498;2023-03-20T07:12:18;99190.63;;;7.52;100.00
72423;BME280;60413;55.658;37.498;2023-03-20T07:18:03;99186.97;;;7.02;100.00
72423;BME280;60413;55.658;37.498;2023-03-20T07:42:02;99169.13;;;6.22;100.00
72423;BME280;60413;55.658;37.498;2023-03-20T07:45:08;99214.81;;;7.03;100.00
72423;BME280;60413;55.658;37.498;2023-03-20T07:48:45;99207.72;;;7.54;100.00
72423;BME280;60413;55.658;37.498;2023-03-20T07:55:35;99238.53;;;9.90;100.00
72423;BME280;60413;55.658;37.498;2023-03-20T08:01:45;99206.03;;;10.94;100.00
72423;BME280;60413;55.658;37.498;2023-03-20T08:07:34;99237.19;;;10.97;100.00
72423;BME280;60413;55.658;37.498;2023-03-20T08:10:31;99242.28;;;11.49;100.00
72423;BME280;60413;55.658;37.498;2023-03-20T08:13:15;99217.19;;;11.69;100.00
72423;BME280;60413;55.658;37.498;2023-03-20T08:16:22;99207.75;;;11.73;100.00
72423;BME280;60413;55.658;37.498;2023-03-20T08:19:32;99205.56;;;11.48;100.00
72423;BME280;60413;55.658;37.498;2023-03-20T08:22:16;99257.38;;;11.54;100.00
72423;BME280;60413;55.658;37.498;2023-03-20T08:25:16;99241.84;;;11.41;100.00
72423;BME280;60413;55.658;37.498;2023-03-20T08:27:52;99236.25;;;11.37;100.00
72423;BME280;60413;55.658;37.498;2023-03-20T08:30:40;99228.41;;;11.59;100.00
72423;BME280;60413;55.658;37.498;2023-03-20T08:34:00;99210.66;;;11.72;100.00
72423;BME280;60413;55.658;37.498;2023-03-20T08:40:16;99220.28;;;12.22;100.00
72423;BME280;60413;55.658;37.498;2023-03-20T08:43:47;99235.59;;;11.98;100.00
72423;BME280;60413;55.658;37.498;2023-03-20T08:46:50;99200.28;;;11.14;100.00
72423;BME280;60413;55.658;37.498;2023-03-20T08:49:22;99189.78;;;10.85;100.00
72423;BME280;60413;55.658;37.498;2023-03-20T08:52:14;99195.84;;;10.40;100.00
72423;BME280;60413;55.658;37.498;2023-03-20T08:54:46;99179.09;;;10.46;100.00
72423;BME280;60413;55.658;37.498;2023-03-20T08:57:28;99168.13;;;9.97;100.00
72423;BME280;60413;55.658;37.498;2023-03-20T09:00:14;99163.81;;;9.91;100.00
72423;BME280;60413;55.658;37.498;2023-03-20T09:02:59;99207.41;;;10.27;100.00
72423;BME280;60413;55.658;37.498;2023-03-20T09:05:42;99165.63;;;9.90;100.00
72423;BME280;60413;55.658;37.498;2023-03-20T09:08:18;99225.19;;;10.20;100.00
72423;BME280;60413;55.658;37.498;2023-03-20T09:11:07;99190.69;;;9.93;100.00
72423;BME280;60413;55.658;37.498;2023-03-20T09:13:52;99162.47;;;9.64;100.00
72423;BME280;60413;55.658;37.498;2023-03-20T09:16:25;99157.91;;;9.48;100.00
72423;BME280;60413;55.658;37.498;2023-03-20T09:19:12;99192.63;;;9.74;100.00
72423;BME280;60413;55.658;37.498;2023-03-20T09:21:39;99151.63;;;9.37;100.00
72423;BME280;60413;55.658;37.498;2023-03-20T09:24:51;99217.84;;;9.70;100.00
72423;BME280;60413;55.658;37.498;2023-03-20T09:27:40;99171.16;;;9.53;100.00
72423;BME280;60413;55.658;37.498;2023-03-20T09:37:02;99192.97;;;10.42;100.00
72423;BME280;60413;55.658;37.498;2023-03-20T09:39:48;99162.38;;;10.00;100.00
72423;BME280;60413;55.658;37.498;2023-03-20T09:52:52;99165.34;;;9.39;100.00
72423;BME280;60413;55.658;37.498;2023-03-20T10:21:15;99128.97;;;8.89;100.00
72423;BME280;60413;55.658;37.498;2023-03-20T10:24:28;99119.56;;;8.39;100.00
72423;BME280;60413;55.658;37.498;2023-03-20T10:59:36;99079.53;;;8.44;100.00
72423;BME280;60413;55.658;37.498;2023-03-20T11:08:40;99030.47;;;8.26;100.00
72423;BME280;60413;55.658;37.498;2023-03-20T11:11:35;99072.00;;;8.47;100.00
72423;BME280;60413;55.658;37.498;2023-03-20T11:17:49;99039.66;;;8.16;100.00
72423;BME280;60413;55.658;37.498;2023-03-20T11:30:10;99054.41;;;8.18;100.00
72423;BME280;60413;55.658;37.498;2023-03-20T11:40:38;98986.78;;;8.01;100.00
72423;BME280;60413;55.658;37.498;2023-03-20T11:47:33;99028.41;;;8.28;100.00
72423;BME280;60413;55.658;37.498;2023-03-20T11:54:05;98960.69;;;8.06;100.00
72423;BME280;60413;55.658;37.498;2023-03-20T11:57:43;98954.09;;;8.27;100.00
72423;BME280;60413;55.658;37.498;2023-03-20T12:00:51;98956.28;;;8.42;100.00
72423;BME280;60413;55.658;37.498;2023-03-20T12:15:25;98943.38;;;8.76;100.00
72423;BME280;60413;55.658;37.498;2023-03-20T12:18:41;98996.28;;;8.92;100.00
72423;BME280;60413;55.658;37.498;2023-03-20T12:42:35;98976.41;;;8.96;100.00
72423;BME280;60413;55.658;37.498;2023-03-20T12:48:36;98972.72;;;8.97;100.00
72423;BME280;60413;55.658;37.498;2023-03-20T13:14:39;98912.91;;;8.63;100.00
72423;BME280;60413;55.658;37.498;2023-03-20T13:21:10;98898.41;;;8.49;100.00
72423;BME280;60413;55.658;37.498;2023-03-20T13:45:53;98845.50;;;7.74;100.00
72423;BME280;60413;55.658;37.498;2023-03-20T14:56:12;98842.34;;;6.26;100.00
72423;BME280;60413;55.658;37.498;2023-03-20T14:59:05;98777.56;;;5.78;100.00
72423;BME280;60413;55.658;37.498;2023-03-20T15:01:53;98849.06;;;6.22;100.00
72423;BME280;60413;55.658;37.498;2023-03-20T15:04:42;98844.75;;;6.09;100.00
72423;BME280;60413;55.658;37.498;2023-03-20T15:07:51;98760.09;;;5.78;100.00
72423;BME280;60413;55.658;37.498;2023-03-20T15:28:37;98831.16;;;5.68;100.00
72423;BME280;60413;55.658;37.498;2023-03-20T15:51:10;98820.88;;;4.71;100.00
72423;BME280;60413;55.658;37.498;2023-03-20T16:04:23;98752.09;;;3.80;100.00
72423;BME280;60413;55.658;37.498;2023-03-20T16:07:17;98781.53;;;3.94;100.00
72423;BME280;60413;55.658;37.498;2023-03-20T16:10:41;98786.16;;;3.85;100.00
72423;BME280;60413;55.658;37.498;2023-03-20T16:20:18;98774.78;;;3.66;100.00
72423;BME280;60413;55.658;37.498;2023-03-20T16:23:47;98749.50;;;3.53;100.00
72423;BME280;60413;55.658;37.498;2023-03-20T16:26:53;98777.56;;;3.65;100.00
72423;BME280;60413;55.658;37.498;2023-03-20T16:29:27;98763.97;;;3.49;100.00
72423;BME280;60413;55.658;37.498;2023-03-20T16:38:25;98788.78;;;3.65;100.00
72423;BME280;60413;55.658;37.498;2023-03-20T16:45:34;98767.16;;;3.45;100.00
72423;BME280;60413;55.658;37.498;2023-03-20T16:48:42;98742.50;;;3.41;100.00
72423;BME280;60413;55.658;37.498;2023-03-20T16:51:51;98745.09;;;3.34;100.00
72423;BME280;60413;55.658;37.498;2023-03-20T16:54:21;98739.88;;;3.34;100.00
72423;BME280;60413;55.658;37.498;2023-03-20T16:56:52;98749.13;;;3.43;100.00
72423;BME280;60413;55.658;37.498;2023-03-20T16:59:38;98752.31;;;3.32;100.00
72423;BME280;60413;55.658;37.498;2023-03-20T17:02:51;98774.56;;;3.41;100.00
72423;BME280;60413;55.658;37.498;2023-03-20T17:05:34;98772.97;;;3.40;100.00
72423;BME280;60413;55.658;37.498;2023-03-20T17:08:13;98776.97;;;3.43;100.00
72423;BME280;60413;55.658;37.498;2023-03-20T17:10:49;98816.28;;;3.55;100.00
72423;BME280;60413;55.658;37.498;2023-03-20T17:13:22;98744.28;;;3.13;100.00
72423;BME280;60413;55.658;37.498;2023-03-20T17:16:04;98742.69;;;3.06;100.00
72423;BME280;60413;55.658;37.498;2023-03-20T17:19:09;98763.53;;;3.12;100.00
72423;BME280;60413;55.658;37.498;2023-03-20T17:22:16;98791.78;;;3.36;100.00
72423;BME280;60413;55.658;37.498;2023-03-20T17:24:53;98761.53;;;3.14;100.00
72423;BME280;60413;55.658;37.498;2023-03-20T17:27:34;98732.66;;;2.96;100.00
72423;BME280;60413;55.658;37.498;2023-03-20T17:30:23;98730.25;;;2.94;100.00
72423;BME280;60413;55.658;37.498;2023-03-20T17:33:13;98788.00;;;3.31;100.00
72423;BME280;60413;55.658;37.498;2023-03-20T17:36:13;98797.19;;;3.27;100.00
72423;BME280;60413;55.658;37.498;2023-03-20T17:39:01;98739.66;;;2.95;100.00
72423;BME280;60413;55.658;37.498;2023-03-20T17:41:45;98760.69;;;3.07;100.00
72423;BME280;60413;55.658;37.498;2023-03-20T17:44:16;98768.94;;;3.11;100.00
72423;BME280;60413;55.658;37.498;2023-03-20T17:47:43;98707.97;;;2.72;100.00
72423;BME280;60413;55.658;37.498;2023-03-20T17:50:24;98793.97;;;3.25;100.00
72423;BME280;60413;55.658;37.498;2023-03-20T17:53:19;98733.84;;;2.93;100.00
72423;BME280;60413;55.658;37.498;2023-03-20T18:11:15;98736.06;;;2.96;100.00
72423;BME280;60413;55.658;37.498;2023-03-20T18:14:11;98788.75;;;3.19;100.00
72423;BME280;60413;55.658;37.498;2023-03-20T18:17:00;98690.34;;;2.60;100.00
72423;BME280;60413;55.658;37.498;2023-03-20T18:19:33;98690.97;;;2.69;100.00
72423;BME280;60413;55.658;37.498;2023-03-20T18:22:03;98707.19;;;2.78;100.00
72423;BME280;60413;55.658;37.498;2023-03-20T18:24:40;98692.16;;;2.73;100.00
72423;BME280;60413;55.658;37.498;2023-03-20T18:27:07;98754.09;;;3.11;100.00
72423;BME280;60413;55.658;37.498;2023-03-20T18:29:43;98683.78;;;2.71;100.00
72423;BME280;60413;55.658;37.498;2023-03-20T18:32:09;98691.97;;;2.75;100.00
72423;BME280;60413;55.658;37.498;2023-03-20T18:34:43;98686.19;;;2.80;100.00
72423;BME280;60413;55.658;37.498;2023-03-20T18:37:19;98752.50;;;3.17;100.00
72423;BME280;60413;55.658;37.498;2023-03-20T18:40:26;98690.59;;;2.86;100.00
72423;BME280;60413;55.658;37.498;2023-03-20T18:43:09;98732.06;;;3.07;100.00
72423;BME280;60413;55.658;37.498;2023-03-20T18:45:51;98723.44;;;3.00;100.00
72423;BME280;60413;55.658;37.498;2023-03-20T18:48:43;98694.97;;;2.78;100.00
72423;BME280;60413;55.658;37.498;2023-03-20T18:51:53;98684.53;;;2.58;100.00
72423;BME280;60413;55.658;37.498;2023-03-20T18:55:06;98701.59;;;2.74;100.00
72423;BME280;60413;55.658;37.498;2023-03-20T18:57:50;98730.06;;;2.96;100.00
72423;BME280;60413;55.658;37.498;2023-03-20T19:04:29;98723.63;;;2.92;100.00
72423;BME280;60413;55.658;37.498;2023-03-20T19:10:38;98724.84;;;2.96;100.00
72423;BME280;60413;55.658;37.498;2023-03-20T19:13:27;98684.34;;;2.67;100.00
72423;BME280;60413;55.658;37.498;2023-03-20T19:19:22;98698.19;;;2.81;100.00
72423;BME280;60413;55.658;37.498;2023-03-20T19:22:19;98727.47;;;2.96;100.00
72423;BME280;60413;55.658;37.498;2023-03-20T19:25:21;98726.84;;;3.01;100.00
72423;BME280;60413;55.658;37.498;2023-03-20T19:27:56;98648.31;;;2.57;100.00
72423;BME280;60413;55.658;37.498;2023-03-20T19:30:57;98724.69;;;3.11;100.00
72423;BME280;60413;55.658;37.498;2023-03-20T19:43:55;98717.47;;;3.20;100.00
72423;BME280;60413;55.658;37.498;2023-03-20T19:46:53;98692.41;;;3.05;100.00
72423;BME280;60413;55.658;37.498;2023-03-20T19:49:23;98719.47;;;3.24;100.00
72423;BME280;60413;55.658;37.498;2023-03-20T19:57:57;98626.13;;;2.88;100.00
72423;BME280;60413;55.658;37.498;2023-03-20T20:00:57;98642.94;;;2.99;100.00
72423;BME280;60413;55.658;37.498;2023-03-20T20:03:26;98648.75;;;2.94;100.00
72423;BME280;60413;55.658;37.498;2023-03-20T20:06:17;98689.59;;;3.33;100.00
72423;BME280;60413;55.658;37.498;2023-03-20T20:08:56;98651.34;;;3.01;100.00
72423;BME280;60413;55.658;37.498;2023-03-20T20:11:53;98634.34;;;2.98;100.00
72423;BME280;60413;55.658;37.498;2023-03-20T20:14:25;98616.91;;;2.78;100.00
72423;BME280;60413;55.658;37.498;2023-03-20T20:16:54;98633.34;;;2.92;100.00
72423;BME280;60413;55.658;37.498;2023-03-20T20:19:43;98632.34;;;2.87;100.00
72423;BME280;60413;55.658;37.498;2023-03-20T20:22:32;98640.94;;;2.94;100.00
72423;BME280;60413;55.658;37.498;2023-03-20T20:24:59;98653.34;;;3.05;100.00
72423;BME280;60413;55.658;37.498;2023-03-20T20:27:26;98643.34;;;2.95;100.00
72423;BME280;60413;55.658;37.498;2023-03-20T20:30:09;98669.38;;;3.29;100.00
72423;BME280;60413;55.658;37.498;2023-03-20T20:33:02;98605.31;;;2.88;100.00
72423;BME280;60413;55.658;37.498;2023-03-20T20:36:32;98627.91;;;3.07;100.00
72423;BME280;60413;55.658;37.498;2023-03-20T20:39:26;98589.50;;;2.96;100.00
72423;BME280;60413;55.658;37.498;2023-03-20T20:41:57;98630.50;;;3.21;100.00
72423;BME280;60413;55.658;37.498;2023-03-20T20:44:35;98592.09;;;2.96;100.00
72423;BME280;60413;55.658;37.498;2023-03-20T20:47:07;98629.53;;;3.15;100.00
72423;BME280;60413;55.658;37.498;2023-03-20T20:50:31;98606.50;;;2.99;100.00
72423;BME280;60413;55.658;37.498;2023-03-20T20:56:46;98648.50;;;3.49;100.00
72423;BME280;60413;55.658;37.498;2023-03-20T20:59:27;98643.91;;;3.51;100.00
72423;BME280;60413;55.658;37.498;2023-03-20T21:02:31;98570.88;;;2.99;100.00
72423;BME280;60413;55.658;37.498;2023-03-20T21:05:35;98576.09;;;2.99;100.00
72423;BME280;60413;55.658;37.498;2023-03-20T21:08:24;98567.25;;;3.00;100.00
72423;BME280;60413;55.658;37.498;2023-03-20T21:11:18;98585.09;;;2.96;100.00
72423;BME280;60413;55.658;37.498;2023-03-20T21:14:26;98610.50;;;3.08;100.00
72423;BME280;60413;55.658;37.498;2023-03-20T21:17:48;98578.06;;;2.84;100.00
72423;BME280;60413;55.658;37.498;2023-03-20T21:20:41;98607.31;;;3.12;100.00
72423;BME280;60413;55.658;37.498;2023-03-20T21:23:30;98589.50;;;2.89;100.00
72423;BME280;60413;55.658;37.498;2023-03-20T21:26:21;98574.66;;;2.96;100.00
72423;BME280;60413;55.658;37.498;2023-03-20T21:29:00;98568.47;;;2.84;100.00
72423;BME280;60413;55.658;37.498;2023-03-20T21:31:40;98634.13;;;3.26;100.00
72423;BME280;60413;55.658;37.498;2023-03-20T21:43:16;98613.13;;;3.86;100.00
72423;BME280;60413;55.658;37.498;2023-03-20T21:46:42;98606.72;;;3.76;100.00
72423;BME280;60413;55.658;37.498;2023-03-20T21:50:11;98624.50;;;3.99;100.00
72423;BME280;60413;55.658;37.498;2023-03-20T22:01:07;98565.63;;;3.19;100.00
72423;BME280;60413;55.658;37.498;2023-03-20T22:04:13;98596.22;;;3.44;100.00
72423;BME280;60413;55.658;37.498;2023-03-20T22:07:11;98574.25;;;3.20;100.00
72423;BME280;60413;55.658;37.498;2023-03-20T22:10:06;98589.59;;;3.48;100.00
72423;BME280;60413;55.658;37.498;2023-03-20T22:12:48;98511.59;;;3.01;100.00
72423;BME280;60413;55.658;37.498;2023-03-20T22:15:43;98592.38;;;3.53;100.00
72423;BME280;60413;55.658;37.498;2023-03-20T22:18:45;98569.19;;;3.38;100.00
72423;BME280;60413;55.658;37.498;2023-03-20T22:21:19;98503.59;;;3.03;100.00
72423;BME280;60413;55.658;37.498;2023-03-20T22:24:15;98547.59;;;3.18;100.00
72423;BME280;60413;55.658;37.498;2023-03-20T22:27:08;98503.63;;;2.83;100.00
72423;BME280;60413;55.658;37.498;2023-03-20T22:30:18;98538.41;;;3.02;100.00
72423;BME280;60413;55.658;37.498;2023-03-20T22:33:38;98499.81;;;2.65;100.00
72423;BME280;60413;55.658;37.498;2023-03-20T22:37:09;98495.66;;;2.64;100.00
72423;BME280;60413;55.658;37.498;2023-03-20T22:41:03;98558.44;;;3.14;100.00
72423;BME280;60413;55.658;37.498;2023-03-20T22:44:13;98476.59;;;2.70;100.00
72423;BME280;60413;55.658;37.498;2023-03-20T22:47:29;98507.78;;;2.97;100.00
72423;BME280;60413;55.658;37.498;2023-03-20T22:50:08;98511.00;;;2.92;100.00
72423;BME280;60413;55.658;37.498;2023-03-20T22:52:47;98502.19;;;2.87;100.00
72423;BME280;60413;55.658;37.498;2023-03-20T22:55:57;98545.22;;;3.16;100.00
72423;BME280;60413;55.658;37.498;2023-03-20T22:58:27;98504.22;;;2.85;100.00
72423;BME280;60413;55.658;37.498;2023-03-20T23:01:07;98493.41;;;2.81;100.00
72423;BME280;60413;55.658;37.498;2023-03-20T23:03:51;98464.41;;;2.71;100.00
72423;BME280;60413;55.658;37.498;2023-03-20T23:06:26;98476.56;;;2.84;100.00
72423;BME280;60413;55.658;37.498;2023-03-20T23:09:19;98457.00;;;2.74;100.00
72423;BME280;60413;55.658;37.498;2023-03-20T23:12:10;98526.75;;;3.31;100.00
72423;BME280;60413;55.658;37.498;2023-03-20T23:14:58;98495.13;;;3.14;100.00
72423;BME280;60413;55.658;37.498;2023-03-20T23:18:20;98520.91;;;3.29;100.00
72423;BME280;60413;55.658;37.498;2023-03-20T23:21:12;98495.56;;;3.04;100.00
72423;BME280;60413;55.658;37.498;2023-03-20T23:27:33;98453.56;;;2.81;100.00
72423;BME280;60413;55.658;37.498;2023-03-20T23:30:26;98443.59;;;2.71;100.00
72423;BME280;60413;55.658;37.498;2023-03-20T23:32:55;98462.56;;;2.85;100.00
72423;BME280;60413;55.658;37.498;2023-03-20T23:35:46;98466.56;;;2.87;100.00
72423;BME280;60413;55.658;37.498;2023-03-20T23:39:15;98500.91;;;3.29;100.00
72423;BME280;60413;55.658;37.498;2023-03-20T23:47:01;98426.38;;;2.63;100.00
72423;BME280;60413;55.658;37.498;2023-03-20T23:49:36;98446.59;;;2.68;100.00
72423;BME280;60413;55.658;37.498;2023-03-20T23:52:19;98425.41;;;2.64;100.00
72423;BME280;60413;55.658;37.498;2023-03-20T23:55:20;98488.31;;;3.13;100.00
72423;BME280;60413;55.658;37.498;2023-03-20T23:58:15;98447.16;;;2.83;100.00
